セント・トーマス島 の空港の天気 - METARとTAF

シリル・E・キング空港 ( TIST / STT ) - アメリカ領ヴァージン諸島 セント・トーマス島
飛行場実況気象(Metar)
観測時間04/15 00:53 AST (04/15 04:53 UTC)
風向・風速北 4m/s
視程10km以上
天気現象
なし
気温25.6℃
湿度64%
気圧1014hPa
METARTIST 150453Z AUTO 35007KT 10SM CLR 26/18 A2994 RMK AO2 SLP140 T02560183
過去の天気等 Google飛行場航空写真 Wunderground天気予報

過去48時間のMETAR

飛行場予報(TAF)
発表時間: 4/14 19:30 AST (4/14 23:30 UTC)
予報対象時間: 14日20時 AST ~ 15日20時 AST
風向・風速北 6m/s
視程10km以上
なし
14日23時 AST から
風向・風速不定 3m/s
視程10km以上
少しの雲 雲底高度 670m
少しの雲 雲底高度 1520m
15日10時 AST から
風向・風速北北東 6m/s
視程10km以上
少しの雲 雲底高度 910m
TIST 142330Z 1500/1524 36011KT P6SM SKC
FM150300 VRB05KT P6SM FEW022 FEW050
FM151400 03012KT P6SM FEW030